createdAt,value
2023-05-19T00:00:58.454Z,0.00
2023-05-19T00:01:58.431Z,0.00
2023-05-19T00:02:58.496Z,0.00
2023-05-19T00:03:58.405Z,0.00
2023-05-19T00:04:58.399Z,0.00
2023-05-19T00:05:58.435Z,0.00
2023-05-19T00:06:58.374Z,0.00
2023-05-19T00:07:58.364Z,0.00
2023-05-19T00:08:58.356Z,0.00
2023-05-19T00:09:58.331Z,0.00
2023-05-19T00:10:58.381Z,0.00
2023-05-19T00:11:58.322Z,0.00
2023-05-19T00:12:58.318Z,0.00
2023-05-19T00:13:58.313Z,0.00
2023-05-19T00:14:58.276Z,0.00
2023-05-19T00:15:58.293Z,0.00
2023-05-19T00:16:58.270Z,0.00
2023-05-19T00:17:58.381Z,0.00
2023-05-19T00:18:58.307Z,0.00
2023-05-19T00:19:58.226Z,0.00
2023-05-19T00:20:58.221Z,0.00
2023-05-19T00:21:58.209Z,0.00
2023-05-19T00:22:58.202Z,0.00
2023-05-19T00:23:58.193Z,0.00
2023-05-19T00:24:58.170Z,0.00
2023-05-19T00:25:58.161Z,0.00
2023-05-19T00:26:58.154Z,0.00
2023-05-19T00:27:58.157Z,0.00
2023-05-19T00:28:58.138Z,0.00
2023-05-19T00:29:58.116Z,0.00
2023-05-19T00:30:58.110Z,0.00
2023-05-19T00:31:58.117Z,0.00
2023-05-19T00:32:58.114Z,0.00
2023-05-19T00:33:58.063Z,0.00
2023-05-19T00:34:58.100Z,0.00
2023-05-19T00:35:58.057Z,0.00
2023-05-19T00:36:58.049Z,0.00
2023-05-19T00:37:58.064Z,0.00
2023-05-19T00:38:58.033Z,0.00
2023-05-19T00:39:58.013Z,0.00
2023-05-19T00:40:58.012Z,0.00
2023-05-19T00:41:57.998Z,0.00
2023-05-19T00:42:57.974Z,0.00
2023-05-19T00:43:57.976Z,0.00
2023-05-19T00:44:57.953Z,0.00
2023-05-19T00:45:57.955Z,0.00
2023-05-19T00:46:58.040Z,0.00
2023-05-19T00:47:58.038Z,0.00
2023-05-19T00:48:57.909Z,0.00
2023-05-19T00:49:57.914Z,0.00
2023-05-19T00:50:57.885Z,0.00
2023-05-19T00:51:57.893Z,0.00
2023-05-19T00:52:57.871Z,0.00
2023-05-19T00:53:57.873Z,0.00
2023-05-19T00:54:57.843Z,0.00
2023-05-19T00:55:57.858Z,0.00
2023-05-19T00:56:57.823Z,0.00
2023-05-19T00:57:57.816Z,0.00
2023-05-19T00:58:57.818Z,0.00
2023-05-19T00:59:57.802Z,0.00
2023-05-19T01:00:57.808Z,0.00
2023-05-19T01:01:57.769Z,0.00
2023-05-19T01:02:57.840Z,0.00
2023-05-19T01:03:57.825Z,0.00
2023-05-19T01:04:57.741Z,0.00
2023-05-19T01:05:57.738Z,0.00
2023-05-19T01:06:57.722Z,0.00
2023-05-19T01:07:57.728Z,0.00
2023-05-19T01:08:57.708Z,0.00
2023-05-19T01:09:57.710Z,0.00
2023-05-19T01:10:57.687Z,0.00
2023-05-19T01:11:57.677Z,0.00
2023-05-19T01:12:57.654Z,0.00
2023-05-19T01:13:57.653Z,0.00
2023-05-19T01:14:57.636Z,0.00
2023-05-19T01:15:57.670Z,0.00
2023-05-19T01:16:57.652Z,0.00
2023-05-19T01:17:57.637Z,0.00
2023-05-19T01:18:57.643Z,0.00
2023-05-19T01:19:57.611Z,0.00
2023-05-19T01:20:57.559Z,0.00
2023-05-19T01:21:57.559Z,0.00
2023-05-19T01:22:57.587Z,0.00
2023-05-19T01:23:57.535Z,0.00
2023-05-19T01:24:57.532Z,0.00
2023-05-19T01:25:57.527Z,0.00
2023-05-19T01:26:57.508Z,0.00
2023-05-19T01:27:57.496Z,0.00
2023-05-19T01:28:57.486Z,0.00
2023-05-19T01:29:57.481Z,0.00
2023-05-19T01:30:57.450Z,0.00
2023-05-19T01:31:57.498Z,0.00
2023-05-19T01:32:57.465Z,0.00
2023-05-19T01:33:57.424Z,0.00
2023-05-19T01:34:57.416Z,0.00
2023-05-19T01:35:57.421Z,0.00
2023-05-19T01:36:57.387Z,0.00
2023-05-19T01:37:57.411Z,0.00
2023-05-19T01:38:57.371Z,0.00
2023-05-19T01:39:57.362Z,0.00
2023-05-19T01:40:57.353Z,0.00
2023-05-19T01:41:57.350Z,0.00
2023-05-19T01:42:57.880Z,0.00
2023-05-19T01:43:57.320Z,0.00
2023-05-19T01:44:57.311Z,0.00
2023-05-19T01:45:57.383Z,0.00
2023-05-19T01:46:57.291Z,0.00
2023-05-19T01:47:57.337Z,0.00
2023-05-19T01:48:57.265Z,0.00
2023-05-19T01:49:57.257Z,0.00
2023-05-19T01:50:57.282Z,0.00
2023-05-19T01:51:57.248Z,0.00
2023-05-19T01:52:57.224Z,0.00
2023-05-19T01:53:57.230Z,0.00
2023-05-19T01:54:57.205Z,0.00
2023-05-19T01:55:57.209Z,0.00
2023-05-19T01:56:57.190Z,0.00
2023-05-19T01:57:57.182Z,0.00
2023-05-19T01:58:57.156Z,0.00
2023-05-19T01:59:57.156Z,0.00
2023-05-19T02:00:57.187Z,0.00
2023-05-19T02:01:57.132Z,0.00
2023-05-19T02:02:57.183Z,0.00
2023-05-19T02:03:57.146Z,0.00
2023-05-19T02:04:57.109Z,0.00
2023-05-19T02:05:57.128Z,0.00
2023-05-19T02:06:57.067Z,0.00
2023-05-19T02:07:57.063Z,0.00
2023-05-19T02:08:57.051Z,0.00
2023-05-19T02:09:57.074Z,0.00
2023-05-19T02:10:57.048Z,0.00
2023-05-19T02:11:57.027Z,0.00
2023-05-19T02:12:57.006Z,0.00
2023-05-19T02:13:57.018Z,0.00
2023-05-19T02:14:57.002Z,0.00
2023-05-19T02:15:57.016Z,0.00
2023-05-19T02:16:56.984Z,0.00
2023-05-19T02:17:57.010Z,0.00
2023-05-19T02:18:56.974Z,0.00
2023-05-19T02:19:56.938Z,0.00
2023-05-19T02:20:56.921Z,0.00
2023-05-19T02:21:56.901Z,0.00
2023-05-19T02:22:56.896Z,0.00
2023-05-19T02:23:56.894Z,0.00
2023-05-19T02:24:56.868Z,0.00
2023-05-19T02:25:56.891Z,0.00
2023-05-19T02:26:56.849Z,0.00
2023-05-19T02:27:56.838Z,0.00
2023-05-19T02:28:56.836Z,0.00
2023-05-19T02:29:56.822Z,0.00
2023-05-19T02:30:56.801Z,0.00
2023-05-19T02:31:56.870Z,0.00
2023-05-19T02:32:56.825Z,0.00
2023-05-19T02:33:56.769Z,0.00
2023-05-19T02:34:56.762Z,0.00
2023-05-19T02:35:56.771Z,0.00
2023-05-19T02:36:56.770Z,0.00
2023-05-19T02:37:56.743Z,0.00
2023-05-19T02:38:56.730Z,0.00
2023-05-19T02:39:56.736Z,0.00
2023-05-19T02:40:56.704Z,0.00
2023-05-19T02:41:56.702Z,0.00
2023-05-19T02:42:56.672Z,0.00
2023-05-19T02:43:56.678Z,0.00
2023-05-19T02:44:56.664Z,0.00
2023-05-19T02:45:56.696Z,0.00
2023-05-19T02:46:56.640Z,0.00
2023-05-19T02:47:56.658Z,0.00
2023-05-19T02:48:56.607Z,0.00
2023-05-19T02:49:56.619Z,0.00
2023-05-19T02:50:56.590Z,0.00
2023-05-19T02:51:56.579Z,0.00
2023-05-19T02:52:56.567Z,0.00
2023-05-19T02:53:56.569Z,0.00
2023-05-19T02:54:56.551Z,0.00
2023-05-19T02:55:56.555Z,0.00
2023-05-19T02:56:56.533Z,0.00
2023-05-19T02:57:56.520Z,0.00
2023-05-19T02:58:56.511Z,0.00
2023-05-19T02:59:56.505Z,0.00
2023-05-19T03:00:56.474Z,0.00
2023-05-19T03:01:56.524Z,0.00
2023-05-19T03:02:56.468Z,1.00
2023-05-19T03:03:56.442Z,1.00
2023-05-19T03:04:56.454Z,0.00
2023-05-19T03:05:56.447Z,0.00
2023-05-19T03:06:56.421Z,0.00
2023-05-19T03:07:56.414Z,0.00
2023-05-19T03:08:56.359Z,2.00
2023-05-19T03:09:56.347Z,1.00
2023-05-19T03:10:56.368Z,1.00
2023-05-19T03:11:56.340Z,1.00
2023-05-19T03:12:56.307Z,1.00
2023-05-19T03:13:56.294Z,1.00
2023-05-19T03:14:56.281Z,3.00
2023-05-19T03:15:56.305Z,5.00
2023-05-19T03:16:56.575Z,4.00
2023-05-19T03:17:56.360Z,4.00
2023-05-19T03:18:56.265Z,3.00
2023-05-19T03:19:56.228Z,3.00
2023-05-19T03:20:56.223Z,5.00
2023-05-19T03:21:56.211Z,9.00
2023-05-19T03:22:56.208Z,3.00
2023-05-19T03:23:56.196Z,3.00
2023-05-19T03:24:56.187Z,5.00
2023-05-19T03:25:56.162Z,5.00
2023-05-19T03:26:56.163Z,3.00
2023-05-19T03:27:56.152Z,5.00
2023-05-19T03:28:56.148Z,8.00
2023-05-19T03:29:56.135Z,9.00
2023-05-19T03:30:56.116Z,11.00
2023-05-19T03:31:56.118Z,10.00
2023-05-19T03:32:56.151Z,10.00
2023-05-19T03:33:56.089Z,14.00
2023-05-19T03:34:56.073Z,13.00
2023-05-19T03:35:56.069Z,14.00
2023-05-19T03:36:56.061Z,15.00
2023-05-19T03:37:56.052Z,19.00
2023-05-19T03:38:56.027Z,16.00
2023-05-19T03:39:56.038Z,14.00
2023-05-19T03:40:56.061Z,16.00
2023-05-19T03:41:56.001Z,20.00
2023-05-19T03:42:55.991Z,22.00
2023-05-19T03:43:55.991Z,29.00
2023-05-19T03:44:55.989Z,28.00
2023-05-19T03:45:55.974Z,30.00
2023-05-19T03:46:55.957Z,30.00
2023-05-19T03:47:56.003Z,29.00
2023-05-19T03:48:55.927Z,32.00
2023-05-19T03:49:55.941Z,28.00
2023-05-19T03:50:55.916Z,32.00
2023-05-19T03:51:55.909Z,35.00
2023-05-19T03:52:55.896Z,37.00
2023-05-19T03:53:55.881Z,40.00
2023-05-19T03:54:55.854Z,41.00
2023-05-19T03:55:55.858Z,44.00
2023-05-19T03:56:55.846Z,46.00
2023-05-19T03:57:55.832Z,45.00
2023-05-19T03:58:55.824Z,47.00
2023-05-19T03:59:55.817Z,50.00
2023-05-19T04:00:55.788Z,46.00
2023-05-19T04:01:55.823Z,49.00
2023-05-19T04:02:55.869Z,50.00
2023-05-19T04:03:55.798Z,53.00
2023-05-19T04:04:55.831Z,55.00
2023-05-19T04:05:55.749Z,58.00
2023-05-19T04:06:55.730Z,61.00
2023-05-19T04:07:55.730Z,64.00
2023-05-19T04:08:55.707Z,70.00
2023-05-19T04:09:55.705Z,66.00
2023-05-19T04:10:55.713Z,66.00
2023-05-19T04:11:55.688Z,66.00
2023-05-19T04:12:55.703Z,75.00
2023-05-19T04:13:55.674Z,74.00
2023-05-19T04:14:55.652Z,84.00
2023-05-19T04:15:55.680Z,82.00
2023-05-19T04:16:55.639Z,83.00
2023-05-19T04:17:55.702Z,85.00
2023-05-19T04:18:55.653Z,79.00
2023-05-19T04:19:55.645Z,82.00
2023-05-19T04:20:55.581Z,87.00
2023-05-19T04:21:55.583Z,91.00
2023-05-19T04:22:55.569Z,91.00
2023-05-19T04:23:55.559Z,89.00
2023-05-19T04:24:55.542Z,93.00
2023-05-19T04:25:55.546Z,98.00
2023-05-19T04:26:55.528Z,111.00
2023-05-19T04:27:55.508Z,110.00
2023-05-19T04:28:55.489Z,115.00
2023-05-19T04:29:55.491Z,121.00
2023-05-19T04:30:55.490Z,123.00
2023-05-19T04:31:55.469Z,125.00
2023-05-19T04:32:55.480Z,131.00
2023-05-19T04:33:55.471Z,134.00
2023-05-19T04:34:55.449Z,130.00
2023-05-19T04:35:55.432Z,132.00
2023-05-19T04:36:55.416Z,134.00
2023-05-19T04:37:55.417Z,133.00
2023-05-19T04:38:55.422Z,134.00
2023-05-19T04:39:55.383Z,133.00
2023-05-19T04:40:55.374Z,132.00
2023-05-19T04:41:55.369Z,135.00
2023-05-19T04:42:55.361Z,136.00
2023-05-19T04:43:55.342Z,137.00
2023-05-19T04:44:55.333Z,140.00
2023-05-19T04:45:55.324Z,141.00
2023-05-19T04:46:55.359Z,134.00
2023-05-19T04:47:55.300Z,135.00
2023-05-19T04:48:55.284Z,136.00
2023-05-19T04:49:55.283Z,136.00
2023-05-19T04:50:55.260Z,136.00
2023-05-19T04:51:55.968Z,142.00
2023-05-19T04:52:55.266Z,141.00
2023-05-19T04:53:55.230Z,141.00
2023-05-19T04:54:55.229Z,139.00
2023-05-19T04:55:55.207Z,144.00
2023-05-19T04:56:55.203Z,148.00
2023-05-19T04:57:55.179Z,150.00
2023-05-19T04:58:55.197Z,158.00
2023-05-19T04:59:55.181Z,164.00
2023-05-19T05:00:55.232Z,170.00
2023-05-19T05:01:55.175Z,176.00
2023-05-19T05:02:55.214Z,180.00
2023-05-19T05:03:55.165Z,181.00
2023-05-19T05:04:55.126Z,183.00
2023-05-19T05:05:55.272Z,190.00
2023-05-19T05:06:55.093Z,191.00
2023-05-19T05:07:55.070Z,230.00
2023-05-19T05:08:55.068Z,216.00
2023-05-19T05:09:55.067Z,148.00
2023-05-19T05:10:55.072Z,163.00
2023-05-19T05:11:55.071Z,192.00
2023-05-19T05:12:55.028Z,207.00
2023-05-19T05:13:55.008Z,209.00
2023-05-19T05:14:54.996Z,210.00
2023-05-19T05:15:55.014Z,210.00
2023-05-19T05:16:55.020Z,216.00
2023-05-19T05:17:55.004Z,221.00
2023-05-19T05:18:55.005Z,219.00
2023-05-19T05:19:54.964Z,221.00
2023-05-19T05:20:54.943Z,218.00
2023-05-19T05:21:54.918Z,216.00
2023-05-19T05:22:54.933Z,212.00
2023-05-19T05:23:54.976Z,210.00
2023-05-19T05:24:54.902Z,212.00
2023-05-19T05:25:54.889Z,214.00
2023-05-19T05:26:54.865Z,226.00
2023-05-19T05:27:54.881Z,226.00
2023-05-19T05:28:54.855Z,226.00
2023-05-19T05:29:56.018Z,225.00
2023-05-19T05:30:54.820Z,223.00
2023-05-19T05:31:54.917Z,223.00
2023-05-19T05:32:54.922Z,224.00
2023-05-19T05:33:54.803Z,222.00
2023-05-19T05:34:54.780Z,222.00
2023-05-19T05:35:54.784Z,223.00
2023-05-19T05:36:54.774Z,226.00
2023-05-19T05:37:54.756Z,226.00
2023-05-19T05:38:54.736Z,224.00
2023-05-19T05:39:54.738Z,226.00
2023-05-19T05:40:54.743Z,226.00
2023-05-19T05:41:54.703Z,224.00
2023-05-19T05:42:54.712Z,224.00
2023-05-19T05:43:54.686Z,224.00
2023-05-19T05:44:54.672Z,230.00
2023-05-19T05:45:54.711Z,230.00
2023-05-19T05:46:54.665Z,228.00
2023-05-19T05:47:54.694Z,229.00
2023-05-19T05:48:54.629Z,223.00
2023-05-19T05:49:54.624Z,226.00
2023-05-19T05:50:54.605Z,231.00
2023-05-19T05:52:54.594Z,229.00
2023-05-19T05:53:54.583Z,237.00
2023-05-19T05:54:54.566Z,238.00
2023-05-19T05:55:54.553Z,243.00
2023-05-19T05:56:54.556Z,239.00
2023-05-19T05:57:54.527Z,237.00
2023-05-19T05:58:54.541Z,238.00
2023-05-19T05:59:54.525Z,238.00
2023-05-19T06:00:54.516Z,238.00
2023-05-19T06:01:54.573Z,235.00
2023-05-19T06:02:54.614Z,242.00
2023-05-19T06:03:54.467Z,245.00
2023-05-19T06:04:54.463Z,244.00
2023-05-19T06:05:54.536Z,245.00
2023-05-19T06:06:54.496Z,252.00
2023-05-19T06:07:54.438Z,252.00
2023-05-19T06:08:54.425Z,250.00
2023-05-19T06:09:54.423Z,249.00
2023-05-19T06:10:54.402Z,256.00
2023-05-19T06:11:54.413Z,247.00
2023-05-19T06:12:54.382Z,246.00
2023-05-19T06:13:54.358Z,248.00
2023-05-19T06:14:54.354Z,249.00
2023-05-19T06:15:54.405Z,251.00
2023-05-19T06:16:54.335Z,251.00
2023-05-19T06:17:54.359Z,247.00
2023-05-19T06:18:54.327Z,247.00
2023-05-19T06:19:54.301Z,249.00
2023-05-19T06:20:54.293Z,249.00
2023-05-19T06:21:54.274Z,253.00
2023-05-19T06:22:54.282Z,248.00
2023-05-19T06:23:54.294Z,250.00
2023-05-19T06:24:54.257Z,249.00
2023-05-19T06:25:54.228Z,250.00
2023-05-19T06:26:54.229Z,250.00
2023-05-19T06:27:54.220Z,251.00
2023-05-19T06:28:54.230Z,252.00
2023-05-19T06:29:54.191Z,254.00
2023-05-19T06:30:54.180Z,259.00
2023-05-19T06:31:54.246Z,255.00
2023-05-19T06:32:54.197Z,258.00
2023-05-19T06:33:54.177Z,259.00
2023-05-19T06:34:54.190Z,259.00
2023-05-19T06:35:54.131Z,256.00
2023-05-19T06:36:54.132Z,259.00
2023-05-19T06:37:54.102Z,261.00
2023-05-19T06:38:54.101Z,263.00
2023-05-19T06:39:54.080Z,263.00
2023-05-19T06:40:54.097Z,265.00
2023-05-19T06:41:54.070Z,265.00
2023-05-19T06:42:54.075Z,264.00
2023-05-19T06:43:54.036Z,259.00
2023-05-19T06:44:54.035Z,255.00
2023-05-19T06:45:54.035Z,255.00
2023-05-19T06:46:54.043Z,257.00
2023-05-19T06:47:54.079Z,252.00
2023-05-19T06:48:53.998Z,252.00
2023-05-19T06:49:53.966Z,257.00
2023-05-19T06:50:53.971Z,255.00
2023-05-19T06:51:53.963Z,255.00
2023-05-19T06:52:53.970Z,257.00
2023-05-19T06:53:53.950Z,252.00
2023-05-19T06:54:53.911Z,252.00
2023-05-19T06:55:58.831Z,252.00
2023-05-19T06:56:53.919Z,255.00
2023-05-19T06:57:53.883Z,255.00
2023-05-19T06:58:53.892Z,255.00
2023-05-19T06:59:53.876Z,255.00
2023-05-19T07:00:53.881Z,256.00
2023-05-19T07:01:53.892Z,260.00
2023-05-19T07:02:53.882Z,260.00
2023-05-19T07:03:53.987Z,260.00
2023-05-19T07:04:53.826Z,261.00
2023-05-19T07:05:53.837Z,263.00
2023-05-19T07:06:53.797Z,264.00
2023-05-19T07:07:53.787Z,262.00
2023-05-19T07:08:53.798Z,263.00
2023-05-19T07:09:53.759Z,261.00
2023-05-19T07:10:53.765Z,258.00
2023-05-19T07:11:53.767Z,259.00
2023-05-19T07:12:53.724Z,264.00
2023-05-19T07:13:53.745Z,266.00
2023-05-19T07:14:53.812Z,254.00
2023-05-19T07:15:53.753Z,259.00
2023-05-19T07:16:53.733Z,262.00
2023-05-19T07:17:53.693Z,264.00
2023-05-19T07:18:53.708Z,264.00
2023-05-19T07:19:53.651Z,264.00
2023-05-19T07:20:53.654Z,263.00
2023-05-19T07:21:53.635Z,263.00
2023-05-19T07:22:53.639Z,263.00
2023-05-19T07:23:53.623Z,260.00
2023-05-19T07:24:53.595Z,263.00
2023-05-19T07:25:53.594Z,260.00
2023-05-19T07:26:53.594Z,263.00
2023-05-19T07:27:53.570Z,263.00
2023-05-19T07:28:53.566Z,261.00
2023-05-19T07:29:53.559Z,256.00
2023-05-19T07:30:53.561Z,259.00
2023-05-19T07:31:54.519Z,257.00
2023-05-19T07:32:53.565Z,258.00
2023-05-19T07:33:54.609Z,260.00
2023-05-19T07:34:53.501Z,263.00
2023-05-19T07:35:53.499Z,263.00
2023-05-19T07:36:53.482Z,260.00
2023-05-19T07:37:53.467Z,259.00
2023-05-19T07:38:53.474Z,260.00
2023-05-19T07:39:53.447Z,259.00
2023-05-19T07:40:53.432Z,260.00
2023-05-19T07:41:53.428Z,260.00
2023-05-19T07:42:53.493Z,258.00
2023-05-19T07:43:53.404Z,261.00
2023-05-19T07:44:53.418Z,261.00
2023-05-19T07:45:53.441Z,261.00
2023-05-19T07:46:53.452Z,259.00
2023-05-19T07:47:53.413Z,261.00
2023-05-19T07:48:53.345Z,259.00
2023-05-19T07:49:53.334Z,257.00
2023-05-19T07:50:53.320Z,257.00
2023-05-19T07:51:53.331Z,257.00
2023-05-19T07:52:53.314Z,257.00
2023-05-19T07:53:53.293Z,255.00
2023-05-19T07:54:53.345Z,255.00
2023-05-19T07:55:53.273Z,256.00
2023-05-19T07:56:53.283Z,254.00
2023-05-19T07:57:53.245Z,251.00
2023-05-19T07:58:53.252Z,251.00
2023-05-19T07:59:53.233Z,251.00
2023-05-19T08:00:53.322Z,251.00
2023-05-19T08:01:53.201Z,251.00
2023-05-19T08:02:53.385Z,251.00
2023-05-19T08:03:53.265Z,254.00
2023-05-19T08:04:53.279Z,254.00
2023-05-19T08:05:53.161Z,256.00
2023-05-19T08:06:53.175Z,256.00
2023-05-19T08:07:53.149Z,251.00
2023-05-19T08:08:53.126Z,251.00
2023-05-19T08:09:53.114Z,254.00
2023-05-19T08:10:53.119Z,251.00
2023-05-19T08:11:53.099Z,254.00
2023-05-19T08:12:53.092Z,254.00
2023-05-19T08:13:53.078Z,254.00
2023-05-19T08:14:53.081Z,254.00
2023-05-19T08:15:53.116Z,251.00
2023-05-19T08:16:53.063Z,251.00
2023-05-19T08:17:53.121Z,251.00
2023-05-19T08:18:53.050Z,251.00
2023-05-19T08:19:53.001Z,251.00
2023-05-19T08:20:52.994Z,251.00
2023-05-19T08:21:52.979Z,254.00
2023-05-19T08:22:52.991Z,254.00
2023-05-19T08:23:52.964Z,251.00
2023-05-19T08:24:52.955Z,251.00
2023-05-19T08:25:52.939Z,251.00
2023-05-19T08:26:53.008Z,251.00
2023-05-19T08:27:52.922Z,252.00
2023-05-19T08:28:52.928Z,257.00
2023-05-19T08:29:52.895Z,257.00
2023-05-19T08:30:52.900Z,254.00
2023-05-19T08:31:53.126Z,251.00
2023-05-19T08:32:52.957Z,252.00
2023-05-19T08:33:52.882Z,251.00
2023-05-19T08:34:52.848Z,256.00
2023-05-19T08:35:52.904Z,254.00
2023-05-19T08:36:52.833Z,254.00
2023-05-19T08:37:52.845Z,252.00
2023-05-19T08:38:52.879Z,251.00
2023-05-19T08:39:52.805Z,251.00
2023-05-19T08:40:52.819Z,255.00
2023-05-19T08:41:52.802Z,255.00
2023-05-19T08:42:52.821Z,256.00
2023-05-19T08:43:52.774Z,259.00
2023-05-19T08:44:52.752Z,257.00
2023-05-19T08:45:52.733Z,256.00
2023-05-19T08:46:52.762Z,256.00
2023-05-19T08:47:52.736Z,257.00
2023-05-19T08:48:52.708Z,261.00
2023-05-19T08:49:52.689Z,257.00
2023-05-19T08:50:52.683Z,257.00
2023-05-19T08:51:52.663Z,255.00
2023-05-19T08:52:53.502Z,255.00
2023-05-19T08:53:52.639Z,254.00
2023-05-19T08:54:52.654Z,262.00
2023-05-19T08:55:52.637Z,257.00
2023-05-19T08:56:52.599Z,256.00
2023-05-19T08:57:52.592Z,252.00
2023-05-19T08:58:52.633Z,253.00
2023-05-19T08:59:52.591Z,255.00
2023-05-19T09:00:52.624Z,259.00
2023-05-19T09:01:52.555Z,263.00
2023-05-19T09:03:00.188Z,266.00
2023-05-19T09:03:52.577Z,263.00
2023-05-19T09:04:52.555Z,260.00
2023-05-19T09:05:52.619Z,259.00
2023-05-19T09:06:52.506Z,260.00
2023-05-19T09:07:52.481Z,262.00
2023-05-19T09:08:52.490Z,261.00
2023-05-19T09:09:52.491Z,259.00
2023-05-19T09:10:52.476Z,260.00
2023-05-19T09:11:52.468Z,255.00
2023-05-19T09:12:52.457Z,263.00
2023-05-19T09:13:52.445Z,263.00
2023-05-19T09:14:52.423Z,261.00
2023-05-19T09:15:52.407Z,261.00
2023-05-19T09:16:52.422Z,261.00
2023-05-19T09:17:52.416Z,258.00
2023-05-19T09:18:52.400Z,263.00
2023-05-19T09:19:52.358Z,277.00
2023-05-19T09:20:52.352Z,269.00
2023-05-19T09:21:52.339Z,262.00
2023-05-19T09:22:52.322Z,254.00
2023-05-19T09:23:52.331Z,259.00
2023-05-19T09:24:52.324Z,275.00
2023-05-19T09:25:52.352Z,269.00
2023-05-19T09:26:52.320Z,274.00
2023-05-19T09:27:52.276Z,278.00
2023-05-19T09:28:52.270Z,282.00
2023-05-19T09:29:52.252Z,282.00
2023-05-19T09:30:52.243Z,300.00
2023-05-19T09:31:52.291Z,285.00
2023-05-19T09:32:52.326Z,287.00
2023-05-19T09:33:52.207Z,287.00
2023-05-19T09:34:52.193Z,283.00
2023-05-19T09:35:52.200Z,277.00
2023-05-19T09:36:52.175Z,270.00
2023-05-19T09:37:52.266Z,268.00
2023-05-19T09:38:52.141Z,282.00
2023-05-19T09:39:52.171Z,290.00
2023-05-19T09:40:52.150Z,325.00
2023-05-19T09:41:52.120Z,338.00
2023-05-19T09:42:52.100Z,72.00
2023-05-19T09:43:52.126Z,349.00
2023-05-19T09:44:52.078Z,100.00
2023-05-19T09:45:52.116Z,207.00
2023-05-19T09:46:52.072Z,363.00
2023-05-19T09:47:52.111Z,236.00
2023-05-19T09:48:52.053Z,92.00
2023-05-19T09:49:52.045Z,223.00
2023-05-19T09:50:52.016Z,301.00
2023-05-19T09:51:52.024Z,388.00
2023-05-19T09:52:52.012Z,228.00
2023-05-19T09:53:52.024Z,214.00
2023-05-19T09:54:51.973Z,83.00
2023-05-19T09:55:51.974Z,274.00
2023-05-19T09:56:51.982Z,339.00
2023-05-19T09:57:51.950Z,404.00
2023-05-19T09:58:51.976Z,458.00
2023-05-19T09:59:51.937Z,202.00
2023-05-19T10:00:51.952Z,368.00
2023-05-19T10:01:52.010Z,222.00
2023-05-19T10:02:51.921Z,70.00
2023-05-19T10:03:51.950Z,277.00
2023-05-19T10:04:51.930Z,289.00
2023-05-19T10:05:51.896Z,392.00
2023-05-19T10:06:51.888Z,338.00
2023-05-19T10:07:51.831Z,87.00
2023-05-19T10:08:51.840Z,416.00
2023-05-19T10:09:51.827Z,351.00
2023-05-19T10:10:51.813Z,227.00
2023-05-19T10:11:51.816Z,234.00
2023-05-19T10:12:51.828Z,216.00
2023-05-19T10:13:51.769Z,227.00
2023-05-19T10:14:51.779Z,232.00
2023-05-19T10:15:58.373Z,219.00
2023-05-19T10:16:51.802Z,90.00
2023-05-19T10:17:51.802Z,231.00
2023-05-19T10:18:51.754Z,301.00
2023-05-19T10:19:51.714Z,388.00
2023-05-19T10:20:51.700Z,108.00
2023-05-19T10:21:51.688Z,327.00
2023-05-19T10:22:51.712Z,356.00
2023-05-19T10:23:51.694Z,235.00
2023-05-19T10:24:51.675Z,210.00
2023-05-19T10:25:51.676Z,86.00
2023-05-19T10:26:51.649Z,331.00
2023-05-19T10:27:51.621Z,389.00
2023-05-19T10:28:51.640Z,192.00
2023-05-19T10:29:51.632Z,318.00
2023-05-19T10:30:51.572Z,384.00
2023-05-19T10:31:51.642Z,226.00
2023-05-19T10:32:51.620Z,88.00
2023-05-19T10:33:51.551Z,311.00
2023-05-19T10:34:51.553Z,316.00
2023-05-19T10:35:51.547Z,312.00
2023-05-19T10:36:51.539Z,321.00
2023-05-19T10:37:51.528Z,302.00
2023-05-19T10:38:51.513Z,291.00
2023-05-19T10:39:51.490Z,285.00
2023-05-19T10:40:51.513Z,325.00
2023-05-19T10:41:51.484Z,105.00
2023-05-19T10:42:51.460Z,215.00
2023-05-19T10:43:51.448Z,277.00
2023-05-19T10:44:51.444Z,285.00
2023-05-19T10:45:51.442Z,305.00
2023-05-19T10:46:51.976Z,312.00
2023-05-19T10:47:51.454Z,315.00
2023-05-19T10:48:51.406Z,313.00
2023-05-19T10:49:51.383Z,315.00
2023-05-19T10:50:51.411Z,292.00
2023-05-19T10:51:51.376Z,267.00
2023-05-19T10:52:51.367Z,280.00
2023-05-19T10:53:51.362Z,299.00
2023-05-19T10:54:51.322Z,315.00
2023-05-19T10:55:51.330Z,321.00
2023-05-19T10:56:51.333Z,305.00
2023-05-19T10:57:51.307Z,337.00
2023-05-19T10:58:51.297Z,404.00
2023-05-19T10:59:51.298Z,274.00
2023-05-19T11:00:51.255Z,278.00
2023-05-19T11:01:51.296Z,172.00
2023-05-19T11:02:51.252Z,142.00
2023-05-19T11:03:51.264Z,270.00
2023-05-19T11:04:51.951Z,280.00
2023-05-19T11:05:51.234Z,300.00
2023-05-19T11:06:51.219Z,272.00
2023-05-19T11:07:51.188Z,297.00
2023-05-19T11:08:51.208Z,334.00
2023-05-19T11:09:51.165Z,399.00
2023-05-19T11:10:51.157Z,230.00
2023-05-19T11:11:51.160Z,313.00
2023-05-19T11:13:51.130Z,271.00
2023-05-19T11:14:51.121Z,269.00
2023-05-19T11:15:51.128Z,271.00
2023-05-19T11:16:51.174Z,309.00
2023-05-19T11:17:51.107Z,366.00
2023-05-19T11:18:51.090Z,81.00
2023-05-19T11:19:51.103Z,299.00
2023-05-19T11:20:51.088Z,314.00
2023-05-19T11:21:51.039Z,395.00
2023-05-19T11:22:51.042Z,259.00
2023-05-19T11:23:51.163Z,108.00
2023-05-19T11:24:51.020Z,424.00
2023-05-19T11:25:51.000Z,138.00
2023-05-19T11:26:51.007Z,420.00
2023-05-19T11:27:51.091Z,350.00
2023-05-19T11:28:50.973Z,369.00
2023-05-19T11:29:50.963Z,391.00
2023-05-19T11:30:50.948Z,421.00
2023-05-19T11:31:50.978Z,264.00
2023-05-19T11:32:51.070Z,168.00
2023-05-19T11:33:50.915Z,348.00
2023-05-19T11:34:50.922Z,349.00
2023-05-19T11:35:50.910Z,362.00
2023-05-19T11:36:50.889Z,388.00
2023-05-19T11:37:50.868Z,367.00
2023-05-19T11:38:50.877Z,350.00
2023-05-19T11:39:50.861Z,378.00
2023-05-19T11:40:50.841Z,354.00
2023-05-19T11:41:50.987Z,353.00
2023-05-19T11:42:50.815Z,337.00
2023-05-19T11:43:50.811Z,341.00
2023-05-19T11:44:50.800Z,355.00
2023-05-19T11:45:50.857Z,318.00
2023-05-19T11:46:50.938Z,328.00
2023-05-19T11:48:01.204Z,366.00
2023-05-19T11:48:50.753Z,374.00
2023-05-19T11:49:50.734Z,385.00
2023-05-19T11:50:50.725Z,391.00
2023-05-19T11:51:50.716Z,388.00
2023-05-19T11:52:50.727Z,319.00
2023-05-19T11:53:50.704Z,424.00
2023-05-19T11:54:50.684Z,384.00
2023-05-19T11:55:50.927Z,291.00
2023-05-19T11:56:50.682Z,298.00
2023-05-19T11:58:02.784Z,287.00
2023-05-19T11:58:50.733Z,297.00
2023-05-19T11:59:50.642Z,281.00
2023-05-19T12:00:50.626Z,316.00
2023-05-19T12:01:50.655Z,333.00
2023-05-19T12:02:50.653Z,202.00
2023-05-19T12:03:50.641Z,271.00
2023-05-19T12:04:50.704Z,304.00
2023-05-19T12:05:50.909Z,309.00
2023-05-19T12:06:50.580Z,298.00
2023-05-19T12:07:50.549Z,283.00
2023-05-19T12:08:50.543Z,277.00
2023-05-19T12:09:50.529Z,279.00
2023-05-19T12:10:50.568Z,283.00
2023-05-19T12:11:50.516Z,288.00
2023-05-19T12:12:50.500Z,303.00
2023-05-19T12:13:50.480Z,294.00
2023-05-19T12:14:50.465Z,291.00
2023-05-19T12:15:50.527Z,288.00
2023-05-19T12:16:50.546Z,294.00
2023-05-19T12:17:50.473Z,298.00
2023-05-19T12:18:50.457Z,301.00
2023-05-19T12:19:50.442Z,409.00
2023-05-19T12:20:50.396Z,253.00
2023-05-19T12:21:50.398Z,272.00
2023-05-19T12:22:50.446Z,266.00
2023-05-19T12:23:50.385Z,258.00
2023-05-19T12:24:50.380Z,238.00
2023-05-19T12:25:50.344Z,251.00
2023-05-19T12:26:50.389Z,150.00
2023-05-19T12:27:50.352Z,359.00
2023-05-19T12:28:50.310Z,129.00
2023-05-19T12:29:50.358Z,285.00
2023-05-19T12:30:50.365Z,286.00
2023-05-19T12:31:50.360Z,307.00
2023-05-19T12:32:50.367Z,288.00
2023-05-19T12:33:50.257Z,378.00
2023-05-19T12:34:50.271Z,121.00
2023-05-19T12:35:50.232Z,292.00
2023-05-19T12:36:50.221Z,335.00
2023-05-19T12:37:50.215Z,224.00
2023-05-19T12:38:50.193Z,168.00
2023-05-19T12:39:50.212Z,242.00
2023-05-19T12:40:50.217Z,255.00
2023-05-19T12:41:50.202Z,113.00
2023-05-19T12:42:50.151Z,231.00
2023-05-19T12:43:50.240Z,250.00
2023-05-19T12:44:50.138Z,246.00
2023-05-19T12:45:50.128Z,245.00